Time;durP1;ratioP1;P1;durP2;ratioP2;P2;SDS_P1;SDS_P2;PMS_P1;PMS_P2;Temp;Humidity;BMP_temperature;BMP_pressure;BME280_temperature;BME280_humidity;BME280_pressure;Samples;Min_cycle;Max_cycle;Signal;HPM_P1;HPM_P2
2021/09/22 00:00:25;;;;;;;7.70;1.00;;;;;;;10.67;55.66;102810.88;4985953;28;20065;-71
2021/09/22 00:02:50;;;;;;;3.97;1.40;;;;;;;10.65;55.89;102810.00;4985998;28;20034;-72
2021/09/22 00:05:17;;;;;;;3.17;0.60;;;;;;;10.63;55.48;102809.16;4986740;28;20034;-70
2021/09/22 00:07:43;;;;;;;2.63;0.57;;;;;;;10.55;55.61;102818.84;4986521;28;20074;-69
2021/09/22 00:10:11;;;;;;;9.93;1.50;;;;;;;10.50;56.07;102826.69;4982414;28;20558;-69
2021/09/22 00:12:37;;;;;;;4.60;0.88;;;;;;;10.49;56.05;102822.34;4985215;28;20045;-68
2021/09/22 00:15:04;;;;;;;4.30;1.77;;;;;;;10.52;56.64;102821.47;4985985;28;20042;-70
2021/09/22 00:17:30;;;;;;;3.38;0.90;;;;;;;10.49;57.01;102814.50;4986419;28;20034;-68
2021/09/22 00:19:55;;;;;;;6.75;1.52;;;;;;;10.60;56.60;102819.66;4985397;28;20061;-69
2021/09/22 00:22:21;;;;;;;9.57;1.00;;;;;;;10.59;56.01;102816.19;4985136;28;20070;-69
2021/09/22 00:24:46;;;;;;;2.17;0.90;;;;;;;10.57;56.14;102817.94;4985740;28;20049;-69
2021/09/22 00:27:12;;;;;;;8.32;1.13;;;;;;;10.62;56.01;102821.38;4984537;28;20088;-69
2021/09/22 00:29:37;;;;;;;3.78;1.25;;;;;;;10.62;56.16;102813.53;4984808;28;20038;-68
2021/09/22 00:32:03;;;;;;;2.53;1.10;;;;;;;10.54;56.04;102817.94;4983619;28;20116;-68
2021/09/22 00:34:28;;;;;;;3.70;1.02;;;;;;;10.56;56.20;102816.19;4985397;28;20072;-68
2021/09/22 00:36:54;;;;;;;5.05;0.70;;;;;;;10.52;56.09;102817.09;4984401;28;20210;-69
2021/09/22 00:39:19;;;;;;;6.00;0.95;;;;;;;10.50;56.07;102816.22;4983814;28;20495;-69
2021/09/22 00:41:45;;;;;;;2.15;1.08;;;;;;;10.19;57.22;102810.38;4984287;28;20050;-68
2021/09/22 00:44:10;;;;;;;12.32;1.48;;;;;;;10.24;57.21;102810.38;4987908;28;20125;-68
2021/09/22 00:46:36;;;;;;;3.03;1.02;;;;;;;10.33;56.78;102807.69;4984832;28;20176;-69
2021/09/22 00:49:01;;;;;;;9.35;1.20;;;;;;;10.33;56.32;102808.56;4977854;28;20795;-69
2021/09/22 00:51:34;;;;;;;6.28;1.65;;;;;;;10.27;56.28;102811.22;4980493;28;20066;-69
2021/09/22 00:53:59;;;;;;;3.20;0.80;;;;;;;10.16;56.35;102816.50;4998278;28;20034;-69
2021/09/22 00:56:25;;;;;;;5.97;1.67;;;;;;;10.15;56.48;102812.19;4980563;28;20033;-70
2021/09/22 00:58:50;;;;;;;5.95;1.30;;;;;;;10.09;56.78;102809.59;4983525;28;20034;-70
2021/09/22 01:01:18;;;;;;;5.03;1.75;;;;;;;10.10;56.75;102813.06;4998468;28;20416;-70
2021/09/22 01:03:43;;;;;;;6.40;1.55;;;;;;;10.14;56.51;102802.59;4974972;28;21076;-70
2021/09/22 01:06:09;;;;;;;4.90;1.02;;;;;;;10.10;56.51;102813.06;4980049;28;20038;-71
2021/09/22 01:08:34;;;;;;;7.78;1.45;;;;;;;10.05;56.45;102804.41;4985137;28;20490;-71
2021/09/22 01:11:00;;;;;;;4.40;1.10;;;;;;;10.05;56.74;102812.25;4999382;28;20041;-71
2021/09/22 01:13:26;;;;;;;4.32;1.08;;;;;;;10.05;56.51;102800.03;4982099;28;20065;-69
2021/09/22 01:15:52;;;;;;;3.08;1.98;;;;;;;10.10;56.58;102800.91;4983657;28;20037;-70
2021/09/22 01:18:22;;;;;;;3.97;1.50;;;;;;;10.09;56.52;102808.75;4984221;28;20448;-69
2021/09/22 01:20:54;;;;;;;7.38;1.42;;;;;;;10.20;56.10;102813.00;4982272;28;20033;-69
2021/09/22 01:23:21;;;;;;;3.63;1.45;;;;;;;10.16;56.23;102811.28;4985258;28;20093;-69
2021/09/22 01:25:50;;;;;;;4.18;1.17;;;;;;;10.11;56.22;102813.06;4975955;28;20026;-69
2021/09/22 01:28:18;;;;;;;4.35;1.50;;;;;;;10.08;56.19;102809.59;4975585;28;20501;-69
2021/09/22 01:30:48;;;;;;;2.78;1.40;;;;;;;10.00;56.02;102807.06;4981628;28;20038;-69
2021/09/22 01:33:17;;;;;;;5.07;1.98;;;;;;;9.95;55.96;102811.44;4974675;28;20034;-70
2021/09/22 01:35:48;;;;;;;3.75;1.25;;;;;;;9.88;56.23;102808.00;4982672;28;20034;-75
2021/09/22 01:38:26;;;;;;;7.32;2.00;;;;;;;9.87;55.91;102821.06;4976737;28;20122;-75
2021/09/22 01:41:00;;;;;;;4.15;1.10;;;;;;;9.89;55.92;102812.34;4999572;28;20034;-74
2021/09/22 01:43:30;;;;;;;5.85;1.30;;;;;;;9.88;55.81;102813.22;4983581;28;20034;-74
2021/09/22 01:45:58;;;;;;;7.05;1.33;;;;;;;9.85;56.10;102810.63;4984039;28;20030;-74
2021/09/22 01:48:23;;;;;;;8.15;1.48;;;;;;;9.89;56.03;102801.91;5000572;28;20053;-75
2021/09/22 01:50:56;;;;;;;3.70;1.38;;;;;;;9.94;55.85;102802.72;4982556;28;20570;-75
2021/09/22 01:53:22;;;;;;;2.08;0.93;;;;;;;9.85;56.56;102800.16;4983489;28;20035;-75
2021/09/22 01:55:48;;;;;;;2.17;1.52;;;;;;;9.88;56.48;102799.28;4981621;28;20470;-68
2021/09/22 01:58:17;;;;;;;2.63;1.48;;;;;;;9.85;56.34;102805.41;4988167;28;20034;-70
2021/09/22 02:00:53;;;;;;;5.20;1.08;;;;;;;9.84;56.61;102794.97;4976864;28;20030;-69
2021/09/22 02:03:29;;;;;;;2.70;1.50;;;;;;;9.88;56.35;102797.56;4982962;28;20034;-68
2021/09/22 02:06:18;;;;;;;10.32;1.83;;;;;;;9.88;56.94;102783.59;4982543;28;20125;-69
2021/09/22 02:08:44;;;;;;;4.93;1.63;;;;;;;9.86;57.11;102782.78;4973744;28;20599;-71
2021/09/22 02:11:20;;;;;;;6.25;1.23;;;;;;;9.97;57.10;102778.34;4973484;28;20515;-70
2021/09/22 02:13:46;;;;;;;5.80;1.80;;;;;;;10.00;57.31;102779.19;4979392;28;20039;-72
2021/09/22 02:16:18;;;;;;;5.78;1.65;;;;;;;10.06;56.95;102778.28;4981726;28;20022;-73
2021/09/22 02:19:11;;;;;;;8.13;2.40;;;;;;;9.74;58.56;102768.00;4979792;28;20042;-73
2021/09/22 02:21:42;;;;;;;5.22;1.90;;;;;;;9.84;58.08;102763.66;4981939;28;20491;-72
2021/09/22 02:24:11;;;;;;;5.90;2.28;;;;;;;10.00;57.92;102762.66;4986092;28;20053;-73
2021/09/22 02:26:37;;;;;;;5.53;2.10;;;;;;;10.16;57.92;102753.78;4974759;28;20053;-73
2021/09/22 02:29:04;;;;;;;9.27;2.65;;;;;;;10.29;57.38;102761.53;4998406;28;20030;-73
2021/09/22 02:31:32;;;;;;;6.88;2.20;;;;;;;10.37;57.12;102763.22;4978933;28;20034;-69
2021/09/22 02:34:02;;;;;;;3.90;1.55;;;;;;;10.35;57.35;102754.53;4974602;28;20560;-68
2021/09/22 02:36:30;;;;;;;7.57;2.70;;;;;;;10.36;57.68;102761.47;4981566;28;20125;-69
2021/09/22 02:39:09;;;;;;;5.53;2.47;;;;;;;10.57;57.41;102759.53;4976658;28;20060;-71
2021/09/22 02:41:37;;;;;;;5.72;2.45;;;;;;;10.46;57.66;102757.03;4982475;28;20530;-70
2021/09/22 02:44:03;;;;;;;12.75;3.20;;;;;;;10.44;58.00;102756.19;4982690;28;20038;-70
2021/09/22 02:46:43;;;;;;;3.63;2.42;;;;;;;10.42;58.06;102755.34;4975622;28;20018;-70
2021/09/22 02:49:10;;;;;;;6.93;3.10;;;;;;;10.44;57.90;102758.78;4982842;28;20504;-68
2021/09/22 02:51:36;;;;;;;11.63;3.67;;;;;;;10.54;57.82;102751.72;4977533;28;20042;-68
2021/09/22 02:54:02;;;;;;;8.32;2.35;;;;;;;10.68;57.53;102757.66;4976951;28;20026;-68
2021/09/22 02:56:31;;;;;;;4.55;1.95;;;;;;;10.72;57.01;102754.13;4983421;28;20144;-68
2021/09/22 02:58:56;;;;;;;7.25;2.80;;;;;;;10.77;56.81;102748.84;4983795;28;20030;-67
2021/09/22 03:01:22;;;;;;;7.55;1.92;;;;;;;10.74;57.05;102751.50;4985149;28;20446;-67
2021/09/22 03:03:48;;;;;;;7.95;2.55;;;;;;;10.73;56.98;102741.94;4989041;28;20045;-67
2021/09/22 03:06:13;;;;;;;9.68;2.53;;;;;;;10.63;57.21;102742.03;4985236;28;20030;-67
2021/09/22 03:08:39;;;;;;;9.88;3.75;;;;;;;10.54;58.00;102749.97;4987195;28;20080;-67
2021/09/22 03:11:08;;;;;;;8.07;2.95;;;;;;;10.70;57.49;102744.56;4985099;28;20380;-67
2021/09/22 03:13:36;;;;;;;9.57;2.78;;;;;;;10.74;57.11;102741.06;4983025;28;20099;-67
2021/09/22 03:16:03;;;;;;;7.28;3.50;;;;;;;10.66;57.68;102748.09;4981686;28;20041;-67
2021/09/22 03:18:30;;;;;;;8.07;3.30;;;;;;;10.66;57.51;102743.75;4979734;28;20059;-67
2021/09/22 03:20:56;;;;;;;9.13;3.63;;;;;;;10.56;57.90;102753.44;4977116;28;20058;-67
2021/09/22 03:23:22;;;;;;;5.47;3.30;;;;;;;10.61;57.63;102740.31;4985278;28;20523;-67
2021/09/22 03:25:54;;;;;;;7.20;3.10;;;;;;;10.60;57.77;102741.22;4983216;28;20026;-67
2021/09/22 03:28:20;;;;;;;4.53;2.75;;;;;;;10.57;57.31;102738.59;4985558;28;20553;-67
2021/09/22 03:30:50;;;;;;;9.38;3.42;;;;;;;10.47;57.81;102732.63;4983912;28;20085;-67
2021/09/22 03:33:16;;;;;;;5.70;3.00;;;;;;;10.52;57.35;102725.59;4981265;28;20532;-67
2021/09/22 03:35:43;;;;;;;4.15;2.92;;;;;;;10.50;57.91;102731.72;4984443;28;20042;-68
2021/09/22 03:38:09;;;;;;;8.65;3.10;;;;;;;10.53;57.47;102724.72;4986028;28;20041;-67
2021/09/22 03:40:35;;;;;;;7.22;3.08;;;;;;;10.49;57.29;102714.31;4984019;28;20038;-67
2021/09/22 03:43:01;;;;;;;6.93;3.47;;;;;;;10.42;57.45;102735.28;4978030;28;20026;-67
2021/09/22 03:45:28;;;;;;;7.38;3.65;;;;;;;10.41;57.43;102728.31;4983249;28;20038;-67
2021/09/22 03:47:54;;;;;;;8.75;3.78;;;;;;;10.41;57.88;102732.66;4984959;28;20057;-68
2021/09/22 03:50:19;;;;;;;12.32;4.15;;;;;;;10.41;57.95;102730.06;4985734;28;20143;-68
2021/09/22 03:53:21;;;;;;;6.22;3.53;;;;;;;10.41;58.03;102732.66;4967850;28;20055;-68
2021/09/22 03:55:48;;;;;;;9.45;4.00;;;;;;;10.43;57.36;102731.75;4978969;28;20566;-67
2021/09/22 03:58:16;;;;;;;7.40;4.55;;;;;;;10.46;58.11;102743.06;4988889;28;20577;-68
2021/09/22 04:00:42;;;;;;;7.57;3.90;;;;;;;10.56;57.89;102748.19;4984930;28;20045;-69
2021/09/22 04:03:08;;;;;;;5.85;3.33;;;;;;;10.57;57.51;102736.88;4979233;28;20061;-71
2021/09/22 04:05:34;;;;;;;9.43;4.25;;;;;;;10.54;57.55;102744.72;4987895;28;20954;-69
2021/09/22 04:08:00;;;;;;;6.25;4.22;;;;;;;10.43;57.93;102746.59;4986804;28;20039;-69
2021/09/22 04:10:26;;;;;;;12.18;3.80;;;;;;;10.51;57.44;102744.78;4991614;28;20074;-69
2021/09/22 04:12:54;;;;;;;4.80;3.10;;;;;;;10.43;57.44;102747.44;5001657;28;20026;-68
2021/09/22 04:15:20;;;;;;;10.07;3.75;;;;;;;10.40;57.89;102744.88;4995745;28;20045;-68
2021/09/22 04:17:45;;;;;;;5.07;3.65;;;;;;;10.45;57.31;102752.66;4988338;28;20454;-68
2021/09/22 04:20:12;;;;;;;11.55;3.50;;;;;;;10.36;57.35;102750.16;4979528;28;20142;-67
2021/09/22 04:22:39;;;;;;;7.80;3.80;;;;;;;10.28;57.17;102758.06;4986151;28;20096;-69
2021/09/22 04:25:07;;;;;;;6.40;3.42;;;;;;;10.25;57.33;102752.00;4983026;28;20035;-69
2021/09/22 04:27:38;;;;;;;9.40;4.18;;;;;;;10.19;57.40;102751.19;4987672;28;20180;-68
2021/09/22 04:30:29;;;;;;;7.68;3.53;;;;;;;10.11;57.21;102754.72;4984568;28;20046;-69
2021/09/22 04:33:13;;;;;;;7.30;3.53;;;;;;;10.05;57.70;102754.78;4984551;28;20134;-67
2021/09/22 04:35:58;;;;;;;6.15;3.42;;;;;;;10.10;57.34;102753.88;4983186;28;20088;-67
2021/09/22 04:38:42;;;;;;;3.83;3.40;;;;;;;10.05;57.66;102750.41;4985317;28;20096;-67
2021/09/22 04:41:26;;;;;;;6.65;3.33;;;;;;;9.97;57.70;102747.00;4985596;28;20057;-67
2021/09/22 04:44:10;;;;;;;4.40;3.08;;;;;;;9.89;57.21;102754.03;4984048;28;20507;-67
2021/09/22 04:46:54;;;;;;;3.88;3.25;;;;;;;9.77;57.25;102747.13;4985729;28;20161;-67
2021/09/22 04:49:38;;;;;;;12.75;3.65;;;;;;;9.68;57.50;102750.66;4985149;28;20053;-67
2021/09/22 04:52:22;;;;;;;6.38;2.90;;;;;;;9.63;57.33;102751.53;4985148;28;20128;-67
2021/09/22 04:55:06;;;;;;;3.20;2.45;;;;;;;9.62;56.66;102749.81;4985073;28;20057;-67
2021/09/22 04:57:51;;;;;;;3.45;2.30;;;;;;;9.57;56.83;102742.88;4984621;28;20077;-67
2021/09/22 05:00:35;;;;;;;7.05;2.83;;;;;;;9.57;56.61;102744.63;4984151;28;20081;-66
2021/09/22 05:03:19;;;;;;;3.40;2.75;;;;;;;9.52;56.65;102739.44;4982462;28;20085;-72
2021/09/22 05:06:06;;;;;;;6.28;3.15;;;;;;;9.45;56.68;102736.84;4985042;28;20121;-67
2021/09/22 05:08:50;;;;;;;5.68;3.17;;;;;;;9.41;56.90;102733.41;4983946;28;20053;-66
2021/09/22 05:11:37;;;;;;;5.55;2.65;;;;;;;9.40;56.94;102744.72;4984542;28;20527;-68
2021/09/22 05:14:21;;;;;;;9.05;3.83;;;;;;;9.38;57.14;102747.31;4984234;28;20057;-67
2021/09/22 05:17:05;;;;;;;5.90;2.88;;;;;;;9.34;57.21;102749.94;4983841;28;20049;-69
2021/09/22 05:19:50;;;;;;;6.65;3.17;;;;;;;9.38;56.97;102756.91;4985647;28;20112;-68
2021/09/22 05:22:33;;;;;;;5.38;3.30;;;;;;;9.41;57.08;102764.72;4984617;28;20081;-68
2021/09/22 05:25:17;;;;;;;5.38;3.15;;;;;;;9.47;56.77;102761.19;4983500;28;20440;-68
2021/09/22 05:28:12;;;;;;;5.90;3.20;;;;;;;9.47;57.27;102769.91;4998084;28;20069;-67
2021/09/22 05:31:16;;;;;;;6.65;4.07;;;;;;;9.53;57.14;102763.78;4993706;28;20034;-68
2021/09/22 05:34:00;;;;;;;6.78;3.65;;;;;;;9.58;57.04;102759.41;4995426;28;20060;-69
2021/09/22 05:36:44;;;;;;;8.45;4.38;;;;;;;9.66;57.16;102756.75;4984723;28;20057;-69
2021/09/22 05:39:28;;;;;;;5.22;3.85;;;;;;;9.76;57.08;102756.66;4984019;28;20069;-69
2021/09/22 05:42:12;;;;;;;7.68;5.05;;;;;;;9.83;56.90;102744.47;4983468;28;20049;-67
2021/09/22 05:44:56;;;;;;;6.95;4.20;;;;;;;9.85;56.88;102749.69;4981572;28;20073;-70
2021/09/22 05:47:45;;;;;;;5.97;3.85;;;;;;;9.94;56.70;102750.47;4978594;28;20042;-70
2021/09/22 05:50:29;;;;;;;6.55;3.58;;;;;;;10.01;57.08;102754.81;4981909;28;20132;-68
2021/09/22 05:53:13;;;;;;;6.05;3.65;;;;;;;10.16;57.40;102756.41;4982779;28;20061;-67
2021/09/22 05:55:57;;;;;;;8.95;4.55;;;;;;;10.35;56.83;102766.72;4983133;28;20077;-68
2021/09/22 05:58:41;;;;;;;7.65;4.13;;;;;;;10.49;56.61;102767.44;4981383;28;20430;-68
2021/09/22 06:01:25;;;;;;;7.35;3.92;;;;;;;10.54;56.43;102770.03;4982978;28;20049;-67
2021/09/22 06:04:09;;;;;;;5.25;4.50;;;;;;;10.50;56.32;102766.56;4983078;28;20593;-66
2021/09/22 06:07:06;;;;;;;10.57;5.88;;;;;;;10.49;56.42;102772.69;4981508;28;20054;-67
2021/09/22 06:10:07;;;;;;;6.50;4.78;;;;;;;10.66;56.34;102774.25;4981262;28;20045;-70
2021/09/22 06:12:51;;;;;;;9.95;4.95;;;;;;;10.92;56.22;102772.25;4980383;28;20081;-67
2021/09/22 06:15:16;;;;;;;8.63;4.50;;;;;;;11.58;55.65;102757.50;4982687;28;20039;-68
2021/09/22 06:17:42;;;;;;;7.57;5.20;;;;;;;12.71;54.07;102765.28;4980774;28;20507;-67
2021/09/22 06:20:10;;;;;;;9.68;5.25;;;;;;;13.53;52.52;102760.06;4979020;28;20045;-67
2021/09/22 06:22:35;;;;;;;9.98;7.00;;;;;;;14.40;49.94;102760.63;4975246;28;20042;-68
2021/09/22 06:25:01;;;;;;;9.43;5.10;;;;;;;14.90;47.41;102761.03;4981611;28;20497;-68
2021/09/22 06:27:26;;;;;;;9.18;4.97;;;;;;;15.45;47.65;102762.06;4981264;28;20050;-67
2021/09/22 06:29:52;;;;;;;8.35;5.22;;;;;;;15.26;45.20;102766.16;4973920;28;20034;-68
2021/09/22 06:32:18;;;;;;;8.45;4.10;;;;;;;15.32;44.05;102766.84;4983975;28;20310;-66
2021/09/22 06:35:03;;;;;;;8.63;4.88;;;;;;;15.24;45.40;102765.34;4982402;28;20804;-67
2021/09/22 06:37:39;;;;;;;4.97;3.90;;;;;;;16.60;41.12;102771.50;4986660;28;20377;-67
2021/09/22 06:40:19;;;;;;;5.15;4.00;;;;;;;17.57;40.30;102774.97;4972067;28;20034;-67
2021/09/22 06:42:46;;;;;;;3.65;2.97;;;;;;;17.93;36.96;102763.81;4972078;28;20434;-69
2021/09/22 06:45:13;;;;;;;10.40;3.35;;;;;;;18.02;39.81;102759.00;4980933;28;20492;-67
2021/09/22 06:47:39;;;;;;;4.97;2.97;;;;;;;19.28;35.75;102750.81;4981289;28;20368;-67
2021/09/22 06:50:05;;;;;;;5.80;3.80;;;;;;;19.14;35.80;102763.84;4980583;28;20049;-68
2021/09/22 06:52:31;;;;;;;6.00;3.15;;;;;;;20.25;34.58;102761.13;4981948;28;20045;-67
2021/09/22 06:54:57;;;;;;;3.10;2.70;;;;;;;21.13;31.74;102757.31;4980708;28;20906;-68
2021/09/22 06:57:23;;;;;;;5.63;3.60;;;;;;;20.34;33.59;102758.00;4982119;28;20056;-67
2021/09/22 06:59:48;;;;;;;3.22;2.78;;;;;;;21.26;31.40;102749.53;4980630;28;20042;-67
2021/09/22 07:02:14;;;;;;;2.35;1.83;;;;;;;22.54;31.51;102746.47;4979951;28;20037;-68
2021/09/22 07:04:39;;;;;;;3.90;1.75;;;;;;;23.50;29.31;102740.41;4981267;28;20358;-68
2021/09/22 07:07:05;;;;;;;5.25;2.72;;;;;;;22.69;28.71;102741.16;4980652;28;20081;-68
2021/09/22 07:09:30;;;;;;;2.95;2.65;;;;;;;23.37;29.46;102735.06;4967781;28;20533;-69
2021/09/22 07:11:56;;;;;;;3.90;1.83;;;;;;;24.34;27.76;102737.38;4981291;28;20752;-69
2021/09/22 07:14:21;;;;;;;3.25;2.08;;;;;;;24.27;28.04;102745.94;4982588;28;20482;-69
2021/09/22 07:16:47;;;;;;;4.40;2.00;;;;;;;24.02;28.40;102748.47;4980643;28;20038;-70
2021/09/22 07:19:12;;;;;;;3.70;2.70;;;;;;;24.28;28.22;102745.84;4980998;28;20439;-69
2021/09/22 07:21:38;;;;;;;2.92;2.45;;;;;;;24.40;27.22;102746.78;4981265;28;20128;-69
2021/09/22 07:24:04;;;;;;;5.13;3.15;;;;;;;22.78;30.14;102749.44;4981931;28;20042;-70
2021/09/22 07:26:29;;;;;;;4.30;3.10;;;;;;;24.29;28.97;102754.69;4981726;28;20086;-72
2021/09/22 07:28:55;;;;;;;3.55;2.42;;;;;;;25.33;27.30;102752.63;4981924;28;20065;-70
2021/09/22 07:31:21;;;;;;;5.22;2.30;;;;;;;25.67;25.69;102742.09;4982499;28;20034;-69
2021/09/22 07:33:46;;;;;;;2.97;2.55;;;;;;;25.08;27.06;102748.22;4980757;28;20494;-69
2021/09/22 07:36:13;;;;;;;5.53;3.33;;;;;;;23.73;28.79;102747.75;4980632;28;20464;-70
2021/09/22 07:38:39;;;;;;;3.40;2.95;;;;;;;22.95;30.94;102751.03;4984464;28;20114;-70
2021/09/22 07:41:05;;;;;;;4.40;2.50;;;;;;;24.96;28.01;102744.59;4999783;28;20282;-70
2021/09/22 07:43:31;;;;;;;7.75;2.75;;;;;;;25.50;26.19;102740.66;4985096;28;20489;-70
2021/09/22 07:46:00;;;;;;;5.20;2.50;;;;;;;24.00;28.81;102736.19;4985340;28;20034;-70
2021/09/22 07:48:26;;;;;;;5.70;3.10;;;;;;;25.08;27.82;102736.66;5004044;23;20062;-70
2021/09/22 07:50:52;;;;;;;4.13;2.70;;;;;;;25.41;28.39;102739.50;5003389;28;20089;-70
2021/09/22 07:53:18;;;;;;;5.78;2.72;;;;;;;26.41;27.43;102733.75;4980097;28;20704;-71
2021/09/22 07:55:44;;;;;;;4.43;2.65;;;;;;;26.70;25.47;102734.97;4978975;28;20077;-70
2021/09/22 07:58:10;;;;;;;3.42;2.63;;;;;;;26.49;26.15;102731.28;4970294;28;20066;-70
2021/09/22 08:00:35;;;;;;;4.63;2.80;;;;;;;26.74;25.21;102724.84;4986553;28;20034;-70
2021/09/22 08:03:01;;;;;;;2.42;2.20;;;;;;;26.13;26.66;102733.22;4980535;28;20133;-70
2021/09/22 08:05:31;;;;;;;3.35;2.00;;;;;;;26.48;27.04;102732.25;4979591;28;20035;-70
2021/09/22 08:07:56;;;;;;;3.90;2.53;;;;;;;25.76;28.58;102729.84;4981905;28;20026;-70
2021/09/22 08:10:22;;;;;;;4.68;2.13;;;;;;;25.88;28.50;102737.75;4981443;28;20096;-70
2021/09/22 08:12:49;;;;;;;4.13;2.70;;;;;;;26.50;26.55;102724.97;4976488;28;20030;-70
2021/09/22 08:15:16;;;;;;;3.40;2.10;;;;;;;26.22;27.15;102724.47;4995818;28;20100;-71
2021/09/22 08:17:42;;;;;;;7.35;2.05;;;;;;;27.23;25.23;102710.13;4977653;28;20041;-72
2021/09/22 08:20:09;;;;;;;4.38;2.10;;;;;;;26.87;25.69;102711.28;4989522;28;20031;-71
2021/09/22 08:22:34;;;;;;;6.38;2.42;;;;;;;26.04;26.64;102709.78;4977713;28;20122;-70
2021/09/22 08:25:00;;;;;;;11.70;2.38;;;;;;;26.49;26.93;102715.19;4975515;28;20327;-70
2021/09/22 08:27:26;;;;;;;4.35;2.67;;;;;;;24.72;27.98;102709.75;4991959;28;20722;-70
2021/09/22 08:29:52;;;;;;;6.05;2.70;;;;;;;23.37;30.61;102722.56;4977256;28;20046;-70
2021/09/22 08:32:18;;;;;;;5.50;2.72;;;;;;;22.71;31.55;102715.25;4991833;28;20432;-70
2021/09/22 08:34:44;;;;;;;7.43;3.22;;;;;;;21.88;33.38;102720.28;4978516;28;21366;-70
2021/09/22 08:37:09;;;;;;;6.32;3.38;;;;;;;22.02;33.25;102725.63;4973069;28;20045;-70
2021/09/22 08:39:35;;;;;;;5.53;3.67;;;;;;;22.79;31.00;102726.31;4981609;28;20038;-71
2021/09/22 08:42:05;;;;;;;5.30;2.60;;;;;;;19.76;36.17;102721.13;4977049;28;20062;-70
2021/09/22 08:44:31;;;;;;;6.00;2.60;;;;;;;20.92;34.66;102727.47;4976808;28;20769;-70
2021/09/22 08:46:58;;;;;;;9.55;3.63;;;;;;;21.01;35.48;102734.09;4998708;28;20275;-69
2021/09/22 08:49:24;;;;;;;11.32;2.90;;;;;;;20.85;35.23;102726.97;4978922;28;20124;-69
2021/09/22 08:51:50;;;;;;;7.72;3.35;;;;;;;21.17;34.00;102720.81;4976264;28;20035;-70
2021/09/22 08:54:16;;;;;;;7.40;3.55;;;;;;;20.49;37.02;102733.28;4984634;28;20038;-70
2021/09/22 08:56:43;;;;;;;7.95;2.70;;;;;;;20.33;35.81;102727.94;4977278;28;20151;-71
2021/09/22 08:59:11;;;;;;;6.70;3.22;;;;;;;21.14;34.84;102729.81;4968562;28;20048;-70
2021/09/22 09:01:37;;;;;;;4.68;2.63;;;;;;;20.41;36.42;102731.97;4996512;28;20050;-70
2021/09/22 09:04:19;;;;;;;8.15;2.08;;;;;;;19.92;36.43;102730.88;4977440;28;20049;-70
2021/09/22 09:06:46;;;;;;;7.97;2.17;;;;;;;20.61;36.96;102736.22;4983925;28;20038;-70
2021/09/22 09:09:13;;;;;;;7.93;2.00;;;;;;;21.68;34.69;102716.97;4979375;28;20034;-70
2021/09/22 09:11:43;;;;;;;6.75;2.05;;;;;;;21.51;33.31;102719.75;4994740;28;20039;-70
2021/09/22 09:14:12;;;;;;;8.23;2.20;;;;;;;21.90;32.88;102726.38;4980791;28;20088;-70
2021/09/22 09:16:44;;;;;;;7.50;1.67;;;;;;;21.85;33.92;102720.47;4994313;28;20058;-69
2021/09/22 09:19:32;;;;;;;7.30;2.65;;;;;;;21.54;34.34;102716.94;4981857;28;20053;-69
2021/09/22 09:22:04;;;;;;;6.82;2.03;;;;;;;21.48;33.43;102719.94;4980317;28;20100;-70
2021/09/22 09:24:37;;;;;;;5.53;1.83;;;;;;;21.84;33.54;102713.41;4980721;28;20038;-70
2021/09/22 09:27:34;;;;;;;8.88;2.83;;;;;;;21.07;34.07;102733.75;4978903;28;20141;-70
2021/09/22 09:30:14;;;;;;;7.75;2.63;;;;;;;20.11;35.90;102729.97;4982741;28;20246;-70
2021/09/22 09:32:40;;;;;;;7.03;2.05;;;;;;;19.75;36.88;102727.34;4984554;28;20547;-69
2021/09/22 09:35:11;;;;;;;7.45;2.60;;;;;;;19.98;37.65;102726.22;4979149;28;20058;-69
2021/09/22 09:37:40;;;;;;;14.60;2.67;;;;;;;20.38;35.22;102730.34;4980549;28;20046;-70
2021/09/22 09:40:20;;;;;;;6.85;1.20;;;;;;;20.48;35.07;102731.56;4985565;28;20599;-70
2021/09/22 09:42:48;;;;;;;6.00;1.60;;;;;;;20.16;35.62;102735.88;4981007;28;20073;-70
2021/09/22 09:45:20;;;;;;;9.75;1.63;;;;;;;19.37;37.22;102730.06;4985325;28;20484;-70
2021/09/22 09:48:11;;;;;;;16.40;2.92;;;;;;;20.00;36.88;102725.19;4987949;28;20058;-70
2021/09/22 09:50:42;;;;;;;7.32;2.72;;;;;;;20.01;35.89;102721.59;4981507;28;20046;-70
2021/09/22 09:53:09;;;;;;;6.43;2.25;;;;;;;20.44;34.66;102715.88;4984962;28;20031;-70
2021/09/22 09:55:39;;;;;;;13.05;3.58;;;;;;;20.84;35.36;102717.28;4980262;28;20127;-70
2021/09/22 09:58:05;;;;;;;5.68;1.88;;;;;;;20.88;35.93;102713.50;4983099;28;20030;-69
2021/09/22 10:00:37;;;;;;;4.25;1.95;;;;;;;21.23;33.77;102705.34;4993486;28;20030;-70
2021/09/22 10:03:10;;;;;;;5.97;1.55;;;;;;;21.25;33.84;102705.28;4982265;28;20227;-70
2021/09/22 10:05:36;;;;;;;6.85;1.88;;;;;;;21.41;33.19;102708.75;4978279;28;20038;-70
2021/09/22 10:08:01;;;;;;;7.43;1.75;;;;;;;21.90;31.75;102697.94;4977001;28;20045;-70
2021/09/22 10:10:28;;;;;;;5.75;1.80;;;;;;;21.76;33.22;102696.09;4964978;28;20031;-69
2021/09/22 10:12:55;;;;;;;7.78;1.80;;;;;;;21.90;31.87;102697.09;4964540;28;20061;-69
2021/09/22 10:15:22;;;;;;;9.35;2.22;;;;;;;21.39;33.42;102700.00;4981740;28;20090;-70
2021/09/22 10:17:49;;;;;;;8.45;2.08;;;;;;;20.66;34.94;102703.19;4984838;28;20042;-70
2021/09/22 10:20:17;;;;;;;3.03;1.50;;;;;;;20.17;35.08;102710.19;4979592;28;20104;-70
2021/09/22 10:22:42;;;;;;;11.65;1.63;;;;;;;19.77;35.19;102706.91;4980707;28;20361;-70
2021/09/22 10:25:09;;;;;;;7.22;1.70;;;;;;;21.25;33.57;102711.44;4981942;28;20037;-70
2021/09/22 10:27:35;;;;;;;4.32;0.98;;;;;;;22.22;32.42;102705.81;4976683;28;20162;-70
2021/09/22 10:30:06;;;;;;;5.43;1.42;;;;;;;23.10;32.11;102700.34;4991687;28;20034;-69
2021/09/22 10:32:44;;;;;;;8.77;1.67;;;;;;;23.27;29.90;102697.44;4969421;28;20034;-70
2021/09/22 10:35:24;;;;;;;4.10;0.85;;;;;;;22.42;31.91;102704.56;4982886;28;20042;-70
2021/09/22 10:37:53;;;;;;;11.03;2.33;;;;;;;22.78;30.61;102705.91;4979067;28;20035;-69
2021/09/22 10:40:34;;;;;;;9.70;1.45;;;;;;;22.91;31.14;102695.31;4978951;28;20897;-70
2021/09/22 10:43:14;;;;;;;4.00;1.02;;;;;;;23.34;29.71;102692.53;4984945;28;20041;-70
2021/09/22 10:46:08;;;;;;;4.63;1.35;;;;;;;23.39;29.00;102693.97;4982341;28;20647;-70
2021/09/22 10:48:37;;;;;;;6.32;1.42;;;;;;;23.39;29.42;102690.44;4983807;28;20130;-70
2021/09/22 10:51:06;;;;;;;6.50;2.20;;;;;;;22.89;29.75;102675.91;4978190;28;20041;-70
2021/09/22 10:53:32;;;;;;;10.43;2.05;;;;;;;22.86;31.36;102679.63;4976347;28;20031;-70
2021/09/22 10:56:12;;;;;;;8.77;1.98;;;;;;;23.29;31.29;102679.50;4995073;28;20043;-71
2021/09/22 10:58:40;;;;;;;8.25;2.55;;;;;;;23.62;29.26;102675.56;4972758;28;20026;-70
2021/09/22 11:01:06;;;;;;;4.93;2.10;;;;;;;23.65;29.22;102669.16;4978723;28;20049;-70
2021/09/22 11:03:51;;;;;;;4.60;1.75;;;;;;;23.53;29.96;102670.84;4979775;28;20034;-69
2021/09/22 11:06:48;;;;;;;6.03;2.72;;;;;;;22.79;30.36;102665.84;4979174;28;20127;-70
2021/09/22 11:09:29;;;;;;;7.32;2.15;;;;;;;22.91;30.54;102666.84;4984989;28;20489;-70
2021/09/22 11:11:59;;;;;;;3.30;1.90;;;;;;;22.76;30.94;102660.72;4981696;28;20094;-70
2021/09/22 11:14:30;;;;;;;8.75;2.85;;;;;;;22.91;30.55;102656.19;4984889;28;20066;-70
2021/09/22 11:17:18;;;;;;;7.95;2.30;;;;;;;23.56;30.32;102657.28;4975845;28;20062;-70
2021/09/22 11:19:48;;;;;;;9.68;2.42;;;;;;;23.54;29.58;102657.41;4977111;28;20056;-69
2021/09/22 11:22:17;;;;;;;4.22;2.17;;;;;;;24.13;29.51;102658.75;4980918;28;20522;-69
2021/09/22 11:24:43;;;;;;;8.13;2.45;;;;;;;23.44;30.45;102650.97;4985391;28;20450;-69
2021/09/22 11:27:12;;;;;;;5.13;2.30;;;;;;;22.90;31.59;102651.81;4968777;28;20045;-70
2021/09/22 11:29:49;;;;;;;6.53;2.42;;;;;;;23.89;30.29;102651.47;4979611;28;20038;-70
2021/09/22 11:32:37;;;;;;;7.43;3.03;;;;;;;22.26;30.99;102645.22;4971194;28;20069;-70
2021/09/22 11:35:05;;;;;;;12.23;3.20;;;;;;;22.24;32.47;102642.66;4965179;28;20062;-71
2021/09/22 11:37:38;;;;;;;9.48;3.10;;;;;;;22.24;32.94;102647.13;4980189;28;20039;-69
2021/09/22 11:40:07;;;;;;;13.15;3.25;;;;;;;23.18;30.91;102637.50;4998289;28;20030;-71
2021/09/22 11:42:33;;;;;;;9.93;3.38;;;;;;;24.01;30.88;102628.38;4980450;28;20031;-70
2021/09/22 11:44:58;;;;;;;6.63;2.47;;;;;;;24.28;30.01;102630.06;4983465;28;20372;-70